Time;durP1;ratioP1;P1;durP2;ratioP2;P2;SDS_P1;SDS_P2;PMS_P1;PMS_P2;Temp;Humidity;BMP_temperature;BMP_pressure;BME280_temperature;BME280_humidity;BME280_pressure;Samples;Min_cycle;Max_cycle;Signal;HPM_P1;HPM_P2
2022/07/07 00:02:22;;;;;;;;;;;20.00;46.70;;;;;;5164485;27;20312;-48
2022/07/07 00:04:48;;;;;;;;;;;19.70;47.20;;;;;;5164379;27;20358;-45
2022/07/07 00:07:13;;;;;;;;;;;20.30;47.30;;;;;;5168147;27;19930;-46
2022/07/07 00:09:39;;;;;;;;;;;21.40;45.20;;;;;;5163863;27;19922;-47
2022/07/07 00:12:05;;;;;;;;;;;21.60;44.30;;;;;;5148922;27;19927;-55
2022/07/07 00:14:31;;;;;;;;;;;20.30;46.40;;;;;;5167082;27;19978;-45
2022/07/07 00:16:57;;;;;;;;;;;19.90;46.70;;;;;;5164561;27;20362;-46
2022/07/07 00:19:23;;;;;;;;;;;19.80;47.30;;;;;;5169953;27;19933;-49
2022/07/07 00:21:49;;;;;;;;;;;20.70;46.60;;;;;;5164195;27;19927;-45
2022/07/07 00:24:14;;;;;;;;;;;21.80;44.20;;;;;;5163773;27;19926;-45
2022/07/07 00:26:40;;;;;;;;;;;20.60;46.00;;;;;;5168210;27;19975;-45
2022/07/07 00:29:06;;;;;;;;;;;20.00;46.90;;;;;;5163913;27;20333;-45
2022/07/07 00:31:32;;;;;;;;;;;19.80;46.90;;;;;;5164736;27;20024;-56
2022/07/07 00:33:58;;;;;;;;;;;20.50;47.10;;;;;;5169452;27;19928;-46
2022/07/07 00:36:24;;;;;;;;;;;21.50;44.60;;;;;;5163034;27;20401;-48
2022/07/07 00:38:50;;;;;;;;;;;21.00;45.20;;;;;;5169482;27;20293;-45
2022/07/07 00:41:15;;;;;;;;;;;20.10;46.50;;;;;;5163964;27;19930;-45
2022/07/07 00:43:42;;;;;;;;;;;19.80;46.80;;;;;;5143655;27;19930;-53
2022/07/07 00:46:07;;;;;;;;;;;19.90;47.90;;;;;;5168630;27;19922;-49
2022/07/07 00:48:35;;;;;;;;;;;21.00;45.90;;;;;;5163868;27;20715;-45
2022/07/07 00:51:01;;;;;;;;;;;21.80;44.00;;;;;;5164048;27;19933;-46
2022/07/07 00:53:27;;;;;;;;;;;20.50;46.20;;;;;;5150910;27;19923;-44
2022/07/07 00:55:52;;;;;;;;;;;19.90;47.00;;;;;;5163901;27;19930;-46
2022/07/07 00:58:18;;;;;;;;;;;19.70;47.00;;;;;;5169208;27;19971;-47
2022/07/07 01:00:44;;;;;;;;;;;20.50;47.00;;;;;;5163216;27;19926;-51
2022/07/07 01:03:10;;;;;;;;;;;21.50;44.60;;;;;;5161870;27;20298;-49
2022/07/07 01:05:36;;;;;;;;;;;21.20;45.00;;;;;;5168644;27;19957;-44
2022/07/07 01:08:04;;;;;;;;;;;20.10;46.60;;;;;;5163589;27;19971;-47
2022/07/07 01:10:30;;;;;;;;;;;19.80;46.70;;;;;;5163740;27;20063;-50
2022/07/07 01:12:56;;;;;;;;;;;20.50;47.10;;;;;;5168912;27;19979;-45
2022/07/07 01:15:22;;;;;;;;;;;21.50;44.60;;;;;;5163771;27;19930;-45
2022/07/07 01:17:48;;;;;;;;;;;21.70;44.40;;;;;;5168748;27;19930;-49
2022/07/07 01:20:13;;;;;;;;;;;21.80;42.80;;;;;;5162011;27;19955;-53
2022/07/07 01:23:06;;;;;;;;;;;21.80;42.10;;;;;;5142401;27;19923;-51
2022/07/07 01:25:31;;;;;;;;;;;21.80;41.70;;;;;;5163329;27;19931;-52
2022/07/07 01:27:57;;;;;;;;;;;21.80;41.40;;;;;;5163366;27;20397;-53
2022/07/07 01:30:23;;;;;;;;;;;21.90;41.20;;;;;;5163367;27;20254;-52
2022/07/07 01:32:49;;;;;;;;;;;22.00;41.00;;;;;;5168677;27;20343;-50
2022/07/07 01:35:15;;;;;;;;;;;22.00;40.80;;;;;;5163055;27;19975;-51
2022/07/07 01:37:40;;;;;;;;;;;22.10;40.60;;;;;;5162327;27;20515;-54
2022/07/07 01:40:06;;;;;;;;;;;22.10;40.60;;;;;;5166854;27;19970;-53
2022/07/07 01:42:32;;;;;;;;;;;22.20;40.50;;;;;;5162472;27;19927;-52
2022/07/07 01:44:58;;;;;;;;;;;22.20;40.30;;;;;;5166508;27;19923;-54
2022/07/07 01:47:23;;;;;;;;;;;22.30;40.20;;;;;;5164722;27;19927;-54
2022/07/07 01:49:49;;;;;;;;;;;22.30;40.10;;;;;;5162720;27;19922;-53
2022/07/07 01:52:15;;;;;;;;;;;22.20;40.10;;;;;;5168411;27;19935;-54
2022/07/07 01:54:41;;;;;;;;;;;22.30;40.00;;;;;;5162609;27;19922;-54
2022/07/07 01:57:07;;;;;;;;;;;22.00;40.40;;;;;;5161349;27;20850;-57
2022/07/07 01:59:33;;;;;;;;;;;21.30;41.70;;;;;;5167337;27;19923;-55
2022/07/07 02:01:59;;;;;;;;;;;21.50;41.80;;;;;;5162345;27;19927;-57
2022/07/07 02:04:24;;;;;;;;;;;21.50;41.70;;;;;;5145376;27;19923;-57
2022/07/07 02:06:50;;;;;;;;;;;21.60;41.70;;;;;;5166778;27;19922;-57
2022/07/07 02:09:16;;;;;;;;;;;21.70;41.70;;;;;;5162537;27;19927;-57
2022/07/07 02:11:42;;;;;;;;;;;21.70;41.60;;;;;;5168037;27;19933;-57
2022/07/07 02:14:08;;;;;;;;;;;21.80;41.30;;;;;;5162245;27;19922;-58
2022/07/07 02:16:34;;;;;;;;;;;21.80;41.20;;;;;;5160943;27;20017;-57
2022/07/07 02:19:00;;;;;;;;;;;21.80;41.30;;;;;;5167301;27;20277;-57
2022/07/07 02:21:26;;;;;;;;;;;21.80;41.50;;;;;;5162374;27;20349;-59
2022/07/07 02:23:52;;;;;;;;;;;21.80;41.70;;;;;;5162352;27;19926;-59
2022/07/07 02:26:18;;;;;;;;;;;21.80;41.60;;;;;;5167777;27;19929;-58
2022/07/07 02:28:44;;;;;;;;;;;21.70;41.80;;;;;;5162506;27;20312;-59
2022/07/07 02:31:10;;;;;;;;;;;21.80;41.70;;;;;;5167598;27;19938;-58
2022/07/07 02:33:35;;;;;;;;;;;21.70;41.80;;;;;;5160999;27;19923;-58
2022/07/07 02:36:03;;;;;;;;;;;21.80;41.70;;;;;;5161173;27;19977;-59
2022/07/07 02:38:29;;;;;;;;;;;21.80;41.70;;;;;;5167279;27;19974;-59
2022/07/07 02:40:55;;;;;;;;;;;21.80;41.60;;;;;;5162274;27;19922;-59
2022/07/07 02:43:21;;;;;;;;;;;21.80;41.60;;;;;;5162175;27;20388;-58
2022/07/07 02:45:47;;;;;;;;;;;21.80;41.60;;;;;;5167752;27;19930;-59
2022/07/07 02:48:14;;;;;;;;;;;21.80;41.60;;;;;;5162382;27;19997;-58
2022/07/07 02:50:40;;;;;;;;;;;21.80;41.70;;;;;;5167429;27;19927;-58
2022/07/07 02:53:06;;;;;;;;;;;21.70;41.80;;;;;;5160238;27;19990;-60
2022/07/07 02:55:32;;;;;;;;;;;21.70;41.80;;;;;;5161478;27;20010;-60
2022/07/07 02:57:58;;;;;;;;;;;21.80;41.70;;;;;;5166876;27;20370;-58
2022/07/07 03:00:23;;;;;;;;;;;21.80;41.70;;;;;;5161154;27;19978;-59
2022/07/07 03:02:49;;;;;;;;;;;21.80;41.70;;;;;;5161762;27;20582;-58
2022/07/07 03:05:15;;;;;;;;;;;21.80;41.70;;;;;;5167487;27;19923;-60
2022/07/07 03:07:41;;;;;;;;;;;21.80;41.60;;;;;;5161768;27;20021;-59
2022/07/07 03:10:07;;;;;;;;;;;21.80;41.80;;;;;;5164827;27;20545;-59
2022/07/07 03:12:33;;;;;;;;;;;21.80;41.80;;;;;;5162438;27;20017;-60
2022/07/07 03:14:58;;;;;;;;;;;21.80;41.80;;;;;;5161626;27;20326;-60
2022/07/07 03:17:24;;;;;;;;;;;21.80;41.90;;;;;;5148514;27;19931;-56
2022/07/07 03:19:50;;;;;;;;;;;21.80;41.70;;;;;;5161950;27;19922;-57
2022/07/07 03:22:16;;;;;;;;;;;21.90;41.60;;;;;;5161785;27;20021;-59
2022/07/07 03:24:41;;;;;;;;;;;21.80;41.60;;;;;;5148072;27;19975;-60
2022/07/07 03:27:07;;;;;;;;;;;21.80;41.60;;;;;;5161610;27;20139;-59
2022/07/07 03:29:33;;;;;;;;;;;21.80;41.60;;;;;;5161951;27;19971;-58
2022/07/07 03:31:59;;;;;;;;;;;21.90;41.60;;;;;;5165112;27;19927;-58
2022/07/07 03:34:25;;;;;;;;;;;21.80;41.80;;;;;;5161639;27;19923;-59
2022/07/07 03:36:50;;;;;;;;;;;21.80;41.80;;;;;;5166901;27;19940;-59
2022/07/07 03:39:16;;;;;;;;;;;21.80;41.70;;;;;;5162115;27;19981;-60
2022/07/07 03:41:42;;;;;;;;;;;21.80;41.70;;;;;;5161789;27;19923;-60
2022/07/07 03:44:08;;;;;;;;;;;21.80;41.70;;;;;;5166815;27;19966;-59
2022/07/07 03:46:33;;;;;;;;;;;21.80;41.60;;;;;;5160720;27;20281;-57
2022/07/07 03:48:59;;;;;;;;;;;21.80;41.60;;;;;;5160541;27;19934;-57
2022/07/07 03:51:25;;;;;;;;;;;21.90;41.50;;;;;;5166631;27;19930;-57
2022/07/07 03:53:51;;;;;;;;;;;21.80;41.70;;;;;;5161548;27;19981;-59
2022/07/07 03:56:17;;;;;;;;;;;21.80;41.70;;;;;;5166751;27;19927;-59
2022/07/07 03:58:43;;;;;;;;;;;21.40;42.10;;;;;;5161667;27;20292;-60
2022/07/07 04:01:08;;;;;;;;;;;21.20;41.70;;;;;;5161995;27;19927;-59
2022/07/07 04:03:34;;;;;;;;;;;21.00;41.50;;;;;;5167043;27;19985;-58
2022/07/07 04:06:00;;;;;;;;;;;21.40;43.30;;;;;;5159334;27;20224;-54
2022/07/07 04:08:26;;;;;;;;;;;22.00;41.90;;;;;;5160235;27;19991;-55
2022/07/07 04:10:52;;;;;;;;;;;22.10;41.30;;;;;;5166189;27;20286;-56
2022/07/07 04:13:17;;;;;;;;;;;22.20;40.80;;;;;;5163837;27;20289;-56
2022/07/07 04:15:43;;;;;;;;;;;22.30;40.70;;;;;;5169715;27;19923;-55
2022/07/07 04:18:09;;;;;;;;;;;22.30;40.60;;;;;;5164180;27;19929;-54
2022/07/07 04:20:35;;;;;;;;;;;22.00;41.10;;;;;;5164444;27;20444;-55
2022/07/07 04:23:01;;;;;;;;;;;21.30;42.50;;;;;;5169132;27;19980;-58
2022/07/07 04:25:26;;;;;;;;;;;21.40;42.70;;;;;;5162683;27;19927;-57
2022/07/07 04:27:52;;;;;;;;;;;21.70;42.20;;;;;;5163802;27;19923;-56
2022/07/07 04:30:18;;;;;;;;;;;21.80;42.00;;;;;;5169529;27;19922;-57
2022/07/07 04:32:44;;;;;;;;;;;21.80;41.90;;;;;;5164166;27;19930;-57
2022/07/07 04:35:09;;;;;;;;;;;21.80;42.00;;;;;;5151209;27;19930;-58
2022/07/07 04:37:35;;;;;;;;;;;21.80;41.80;;;;;;5164115;27;20301;-58
2022/07/07 04:40:03;;;;;;;;;;;21.80;41.90;;;;;;5163980;27;20293;-58
2022/07/07 04:42:28;;;;;;;;;;;21.80;41.70;;;;;;5167907;27;19926;-59
2022/07/07 04:44:55;;;;;;;;;;;21.80;42.00;;;;;;5163093;27;20293;-58
2022/07/07 04:47:21;;;;;;;;;;;21.80;41.90;;;;;;5163738;27;20003;-58
2022/07/07 04:49:46;;;;;;;;;;;21.90;41.90;;;;;;5169513;27;20326;-59
2022/07/07 04:52:12;;;;;;;;;;;21.80;41.90;;;;;;5164178;27;19927;-58
2022/07/07 04:54:38;;;;;;;;;;;21.90;41.90;;;;;;5168222;27;19930;-58
2022/07/07 04:57:04;;;;;;;;;;;21.90;41.90;;;;;;5165414;27;19931;-59
2022/07/07 04:59:29;;;;;;;;;;;21.80;42.00;;;;;;5163499;27;19927;-60
2022/07/07 05:01:55;;;;;;;;;;;21.80;41.90;;;;;;5167489;27;20362;-60
2022/07/07 05:04:21;;;;;;;;;;;21.90;41.90;;;;;;5144773;27;19974;-57
2022/07/07 05:06:47;;;;;;;;;;;21.90;42.00;;;;;;5163620;27;19942;-58
2022/07/07 05:09:13;;;;;;;;;;;21.90;41.80;;;;;;5169124;27;19970;-60
2022/07/07 05:11:38;;;;;;;;;;;21.90;41.70;;;;;;5163676;27;19945;-60
2022/07/07 05:14:04;;;;;;;;;;;21.90;41.70;;;;;;5165836;27;19923;-58
2022/07/07 05:16:30;;;;;;;;;;;21.80;42.00;;;;;;5167422;27;19934;-59
2022/07/07 05:18:56;;;;;;;;;;;22.00;41.70;;;;;;5162414;27;20003;-59
2022/07/07 05:21:21;;;;;;;;;;;22.00;41.40;;;;;;5168043;27;19929;-59
2022/07/07 05:23:47;;;;;;;;;;;22.00;41.40;;;;;;5144023;27;19984;-59
2022/07/07 05:26:13;;;;;;;;;;;21.90;41.40;;;;;;5163382;27;19971;-60
2022/07/07 05:28:41;;;;;;;;;;;22.00;41.30;;;;;;5168793;27;20013;-59
2022/07/07 05:31:10;;;;;;;;;;;22.00;41.40;;;;;;5163385;27;19952;-59
2022/07/07 05:33:36;;;;;;;;;;;22.00;41.50;;;;;;5163410;27;19923;-59
2022/07/07 05:36:02;;;;;;;;;;;22.00;41.50;;;;;;5168517;27;20301;-58
2022/07/07 05:38:29;;;;;;;;;;;21.90;41.60;;;;;;5161280;27;20013;-59
2022/07/07 05:40:54;;;;;;;;;;;21.90;41.50;;;;;;5168380;27;19933;-58
2022/07/07 05:43:20;;;;;;;;;;;21.90;41.40;;;;;;5144729;27;20316;-58
2022/07/07 05:45:46;;;;;;;;;;;22.00;41.40;;;;;;5163328;27;19969;-58
2022/07/07 05:48:12;;;;;;;;;;;22.00;41.50;;;;;;5168345;27;19932;-60
2022/07/07 05:50:37;;;;;;;;;;;22.00;41.50;;;;;;5163337;27;20370;-59
2022/07/07 05:53:03;;;;;;;;;;;21.90;41.60;;;;;;5162933;27;20502;-59
2022/07/07 05:55:29;;;;;;;;;;;21.90;41.70;;;;;;5167142;27;19934;-58
2022/07/07 05:57:55;;;;;;;;;;;21.90;41.60;;;;;;5161978;27;19938;-60
2022/07/07 06:00:21;;;;;;;;;;;22.00;41.40;;;;;;5148328;27;20457;-59
2022/07/07 06:02:47;;;;;;;;;;;22.00;41.40;;;;;;5142417;27;19923;-59
2022/07/07 06:05:12;;;;;;;;;;;22.00;41.50;;;;;;5162974;27;20042;-59
2022/07/07 06:07:38;;;;;;;;;;;22.00;41.60;;;;;;5168005;27;19926;-60
2022/07/07 06:10:04;;;;;;;;;;;21.90;41.60;;;;;;5162964;27;19923;-58
2022/07/07 06:12:30;;;;;;;;;;;22.00;41.70;;;;;;5162822;27;20089;-60
2022/07/07 06:14:56;;;;;;;;;;;22.00;41.70;;;;;;5166420;27;19931;-60
2022/07/07 06:17:22;;;;;;;;;;;22.10;41.50;;;;;;5162262;27;19923;-58
2022/07/07 06:19:47;;;;;;;;;;;21.80;42.00;;;;;;5166597;27;19932;-59
2022/07/07 06:22:14;;;;;;;;;;;21.50;42.00;;;;;;5164274;27;19922;-59
2022/07/07 06:24:41;;;;;;;;;;;21.50;41.50;;;;;;5162755;27;20438;-59
2022/07/07 06:27:06;;;;;;;;;;;21.50;43.00;;;;;;5168135;27;20278;-59
2022/07/07 06:29:32;;;;;;;;;;;21.70;43.20;;;;;;5144019;27;19934;-59
2022/07/07 06:31:58;;;;;;;;;;;21.80;42.80;;;;;;5161676;27;20266;-58
2022/07/07 06:34:24;;;;;;;;;;;21.90;42.70;;;;;;5165596;27;19930;-59
2022/07/07 06:36:50;;;;;;;;;;;22.00;42.40;;;;;;5162231;27;19923;-61
2022/07/07 06:39:15;;;;;;;;;;;22.10;42.10;;;;;;5163816;27;19927;-58
2022/07/07 06:41:41;;;;;;;;;;;22.20;41.90;;;;;;5166742;27;19922;-60
2022/07/07 06:44:09;;;;;;;;;;;22.20;41.80;;;;;;5162958;27;20324;-60
2022/07/07 06:46:35;;;;;;;;;;;22.20;41.90;;;;;;5147809;27;19923;-54
2022/07/07 06:49:00;;;;;;;;;;;21.60;43.20;;;;;;5127047;27;19977;-53
2022/07/07 06:51:27;;;;;;;;;;;20.10;46.90;;;;;;5163006;27;19940;-54
2022/07/07 06:53:52;;;;;;;;;;;20.90;46.20;;;;;;5149170;27;20005;-51
2022/07/07 06:56:18;;;;;;;;;;;21.50;44.80;;;;;;5163827;27;19978;-53
2022/07/07 06:58:44;;;;;;;;;;;21.70;44.10;;;;;;5144528;27;19930;-53
2022/07/07 07:01:10;;;;;;;;;;;21.80;43.80;;;;;;5168146;27;20281;-53
2022/07/07 07:03:35;;;;;;;;;;;21.80;43.40;;;;;;5142979;27;20022;-56
2022/07/07 07:06:01;;;;;;;;;;;21.90;43.30;;;;;;5167920;27;19923;-54
2022/07/07 07:08:27;;;;;;;;;;;22.00;43.20;;;;;;5162983;27;19930;-56
2022/07/07 07:10:53;;;;;;;;;;;22.00;43.00;;;;;;5162590;27;19930;-55
2022/07/07 07:13:19;;;;;;;;;;;22.10;42.90;;;;;;5167538;27;20337;-53
2022/07/07 07:15:45;;;;;;;;;;;22.10;42.90;;;;;;5163601;27;19945;-56
2022/07/07 07:18:11;;;;;;;;;;;22.10;43.00;;;;;;5163396;27;19923;-55
2022/07/07 07:20:37;;;;;;;;;;;22.20;42.90;;;;;;5167656;27;19923;-55
2022/07/07 07:23:03;;;;;;;;;;;22.20;42.80;;;;;;5163042;27;19923;-52
2022/07/07 07:25:29;;;;;;;;;;;22.20;42.90;;;;;;5167387;27;19987;-54
2022/07/07 07:27:54;;;;;;;;;;;22.10;43.00;;;;;;5161978;27;19936;-50
2022/07/07 07:30:20;;;;;;;;;;;22.10;43.00;;;;;;5143671;27;20372;-54
2022/07/07 07:32:46;;;;;;;;;;;20.90;45.80;;;;;;5167074;27;19933;-51
2022/07/07 07:35:12;;;;;;;;;;;20.20;47.60;;;;;;5163416;27;19990;-50
2022/07/07 07:37:41;;;;;;;;;;;20.30;48.00;;;;;;5165907;27;20248;-48
2022/07/07 07:40:07;;;;;;;;;;;21.20;46.10;;;;;;5168254;27;20010;-48
2022/07/07 07:42:33;;;;;;;;;;;21.60;45.10;;;;;;5165256;27;19970;-49
2022/07/07 07:45:11;;;;;;;;;;;21.70;44.80;;;;;;5130716;27;19923;-51
2022/07/07 07:47:44;;;;;;;;;;;21.80;44.70;;;;;;5152404;27;20009;-48
2022/07/07 07:50:14;;;;;;;;;;;21.80;44.60;;;;;;5148063;27;20430;-49
2022/07/07 07:52:40;;;;;;;;;;;21.90;44.40;;;;;;5170763;27;20014;-51
2022/07/07 07:55:06;;;;;;;;;;;22.00;44.40;;;;;;5169786;27;19930;-48
2022/07/07 07:57:32;;;;;;;;;;;22.00;44.40;;;;;;5168822;27;19923;-49
2022/07/07 07:59:58;;;;;;;;;;;22.10;44.30;;;;;;5171388;27;19995;-49
2022/07/07 08:02:24;;;;;;;;;;;22.10;44.30;;;;;;5149922;27;19922;-48
2022/07/07 08:04:50;;;;;;;;;;;22.10;44.40;;;;;;5167992;27;19927;-48
2022/07/07 08:07:16;;;;;;;;;;;22.10;44.40;;;;;;5170917;27;20402;-52
2022/07/07 08:09:41;;;;;;;;;;;22.20;44.30;;;;;;5165221;27;19941;-53
2022/07/07 08:12:07;;;;;;;;;;;21.20;46.20;;;;;;5167667;27;19979;-52
2022/07/07 08:14:33;;;;;;;;;;;20.30;48.40;;;;;;5168682;27;20009;-48
2022/07/07 08:16:59;;;;;;;;;;;20.30;49.10;;;;;;5168214;27;19929;-49
2022/07/07 08:19:25;;;;;;;;;;;21.20;47.20;;;;;;5170744;27;20448;-51
2022/07/07 08:21:51;;;;;;;;;;;21.60;46.00;;;;;;5167553;27;20416;-52
2022/07/07 08:24:17;;;;;;;;;;;21.80;45.60;;;;;;5166733;27;19929;-48
2022/07/07 08:26:42;;;;;;;;;;;21.60;45.50;;;;;;5170488;27;20005;-49
2022/07/07 08:29:08;;;;;;;;;;;21.30;44.90;;;;;;5167453;27;19938;-48
2022/07/07 08:31:34;;;;;;;;;;;21.30;44.00;;;;;;5167250;27;19967;-53
2022/07/07 08:34:00;;;;;;;;;;;21.40;45.90;;;;;;5170793;27;19944;-48
2022/07/07 08:36:26;;;;;;;;;;;21.70;47.00;;;;;;5167284;27;20362;-47
2022/07/07 08:38:52;;;;;;;;;;;21.80;46.70;;;;;;5150778;27;19926;-45
2022/07/07 08:41:18;;;;;;;;;;;21.90;46.20;;;;;;5147796;27;20462;-46
2022/07/07 08:43:44;;;;;;;;;;;21.90;46.20;;;;;;5166812;27;20014;-46
2022/07/07 08:46:09;;;;;;;;;;;22.00;45.90;;;;;;5150646;27;19937;-46
2022/07/07 08:48:35;;;;;;;;;;;22.10;45.80;;;;;;5167508;27;20933;-45
2022/07/07 08:51:01;;;;;;;;;;;22.00;45.80;;;;;;5148389;27;20290;-46
2022/07/07 08:53:32;;;;;;;;;;;22.20;45.60;;;;;;5170090;27;20021;-46
2022/07/07 08:55:58;;;;;;;;;;;22.10;45.70;;;;;;5166457;27;19962;-47
2022/07/07 08:58:24;;;;;;;;;;;22.10;45.80;;;;;;5149000;27;19930;-48
2022/07/07 09:00:50;;;;;;;;;;;22.10;46.10;;;;;;5143929;27;20381;-47
2022/07/07 09:03:15;;;;;;;;;;;20.90;48.90;;;;;;5164260;27;19953;-47
2022/07/07 09:05:41;;;;;;;;;;;20.20;50.90;;;;;;5168981;27;20277;-52
2022/07/07 09:08:20;;;;;;;;;;;20.50;52.20;;;;;;5163682;27;19923;-49
2022/07/07 09:10:45;;;;;;;;;;;21.30;50.10;;;;;;5163391;27;19958;-51
2022/07/07 09:13:27;;;;;;;;;;;21.70;48.70;;;;;;5169238;27;19922;-49
2022/07/07 09:15:54;;;;;;;;;;;22.00;47.80;;;;;;5163363;27;20025;-52
2022/07/07 09:18:40;;;;;;;;;;;22.00;47.60;;;;;;5161540;27;19952;-52
2022/07/07 09:21:06;;;;;;;;;;;22.10;47.60;;;;;;5167521;27;20266;-52
2022/07/07 09:23:32;;;;;;;;;;;22.10;47.70;;;;;;5144197;27;19975;-53
2022/07/07 09:25:58;;;;;;;;;;;22.10;47.90;;;;;;5163391;27;20604;-53
2022/07/07 09:28:24;;;;;;;;;;;22.00;48.10;;;;;;5148528;27;19946;-53
2022/07/07 09:30:50;;;;;;;;;;;22.10;48.00;;;;;;5163364;27;19929;-54
2022/07/07 09:33:20;;;;;;;;;;;22.20;47.90;;;;;;5168432;27;20405;-54
2022/07/07 09:38:31;;;;;;;;;;;22.20;48.70;;;;;;5162465;27;19923;-50
2022/07/07 09:41:10;;;;;;;;;;;20.60;52.00;;;;;;5168220;27;20025;-49
2022/07/07 09:43:37;;;;;;;;;;;20.70;54.50;;;;;;5166773;27;19937;-51
2022/07/07 09:46:19;;;;;;;;;;;21.50;52.10;;;;;;5162770;27;20312;-50
2022/07/07 09:48:46;;;;;;;;;;;21.90;50.80;;;;;;5149776;27;19982;-51
2022/07/07 09:51:16;;;;;;;;;;;22.00;50.10;;;;;;5163072;27;19923;-48
2022/07/07 09:53:55;;;;;;;;;;;22.00;50.30;;;;;;5162103;27;20437;-49
2022/07/07 09:56:21;;;;;;;;;;;22.10;50.30;;;;;;5166728;27;19923;-48
2022/07/07 09:58:47;;;;;;;;;;;22.10;50.20;;;;;;5162121;27;19933;-48
2022/07/07 10:01:13;;;;;;;;;;;22.20;49.90;;;;;;5163044;27;20358;-49
2022/07/07 10:03:39;;;;;;;;;;;22.10;49.90;;;;;;5168291;27;20017;-50
2022/07/07 10:06:05;;;;;;;;;;;20.70;52.30;;;;;;5163123;27;20325;-48
2022/07/07 10:08:31;;;;;;;;;;;20.00;53.80;;;;;;5144420;27;19944;-50
2022/07/07 10:10:56;;;;;;;;;;;20.40;55.90;;;;;;5149361;27;19927;-50
2022/07/07 10:13:22;;;;;;;;;;;21.10;54.30;;;;;;5161085;27;20382;-52
2022/07/07 10:15:48;;;;;;;;;;;21.60;52.50;;;;;;5167096;27;19929;-52
2022/07/07 10:18:14;;;;;;;;;;;21.80;51.50;;;;;;5162285;27;19942;-53
2022/07/07 10:20:39;;;;;;;;;;;21.80;51.30;;;;;;5162643;27;20381;-53
2022/07/07 10:23:05;;;;;;;;;;;21.80;51.20;;;;;;5167808;27;19937;-49
2022/07/07 10:25:31;;;;;;;;;;;21.90;51.10;;;;;;5162491;27;19923;-48
2022/07/07 10:27:57;;;;;;;;;;;21.90;51.00;;;;;;5162457;27;20607;-50
2022/07/07 10:30:29;;;;;;;;;;;22.10;50.50;;;;;;5166962;27;19965;-51
2022/07/07 10:32:55;;;;;;;;;;;21.80;49.80;;;;;;5160740;27;19923;-52
2022/07/07 10:35:23;;;;;;;;;;;21.60;48.60;;;;;;5164034;27;19937;-58
2022/07/07 10:37:49;;;;;;;;;;;21.40;48.20;;;;;;5166161;27;19943;-50
2022/07/07 10:40:26;;;;;;;;;;;21.70;49.60;;;;;;5161635;27;21309;-49
2022/07/07 10:43:10;;;;;;;;;;;21.90;50.00;;;;;;5148570;27;19931;-49
2022/07/07 10:45:43;;;;;;;;;;;21.90;50.40;;;;;;5167547;27;19938;-50
2022/07/07 10:48:09;;;;;;;;;;;22.00;50.40;;;;;;5162273;27;19941;-52
2022/07/07 10:50:35;;;;;;;;;;;22.10;50.30;;;;;;5147202;27;20385;-46
2022/07/07 10:53:01;;;;;;;;;;;22.20;49.80;;;;;;5161859;27;19923;-50
2022/07/07 10:55:56;;;;;;;;;;;21.30;51.10;;;;;;5143459;27;20393;-52
2022/07/07 10:58:40;;;;;;;;;;;20.30;53.20;;;;;;5145024;27;19926;-49
2022/07/07 11:01:09;;;;;;;;;;;20.00;54.40;;;;;;5167462;27;19941;-49
2022/07/07 11:03:35;;;;;;;;;;;20.80;56.40;;;;;;5162342;27;19923;-48
2022/07/07 11:06:03;;;;;;;;;;;21.90;53.70;;;;;;5167514;27;19978;-51
2022/07/07 11:08:35;;;;;;;;;;;21.00;54.30;;;;;;5160236;27;20296;-50
2022/07/07 11:11:01;;;;;;;;;;;20.80;54.30;;;;;;5161124;27;19933;-51
2022/07/07 11:13:31;;;;;;;;;;;20.80;53.70;;;;;;5167024;27;20291;-50
2022/07/07 11:16:09;;;;;;;;;;;20.70;53.70;;;;;;5161626;27;19927;-51
2022/07/07 11:18:35;;;;;;;;;;;20.50;53.90;;;;;;5161851;27;19926;-53
2022/07/07 11:21:01;;;;;;;;;;;20.60;53.80;;;;;;5168451;27;19977;-50
2022/07/07 11:23:40;;;;;;;;;;;20.50;53.80;;;;;;5165456;27;19926;-49
2022/07/07 11:26:06;;;;;;;;;;;20.50;53.90;;;;;;5164207;27;19933;-49
2022/07/07 11:28:31;;;;;;;;;;;20.60;53.50;;;;;;5169140;27;19926;-49
2022/07/07 11:31:01;;;;;;;;;;;20.40;54.20;;;;;;5145932;27;19927;-51
2022/07/07 11:33:27;;;;;;;;;;;20.60;53.80;;;;;;5166181;27;19930;-58
2022/07/07 11:35:53;;;;;;;;;;;20.50;53.50;;;;;;5169377;27;19946;-52
2022/07/07 11:38:18;;;;;;;;;;;20.60;53.50;;;;;;5165077;27;19927;-52
2022/07/07 11:40:44;;;;;;;;;;;20.70;53.40;;;;;;5170445;27;19969;-49
2022/07/07 11:43:23;;;;;;;;;;;20.60;53.70;;;;;;5165028;27;19923;-54
2022/07/07 11:45:49;;;;;;;;;;;20.30;54.10;;;;;;5162930;27;20427;-50
2022/07/07 11:48:14;;;;;;;;;;;20.60;53.30;;;;;;5169882;27;20029;-51
2022/07/07 11:50:40;;;;;;;;;;;20.40;53.60;;;;;;5164537;27;19923;-48
2022/07/07 11:53:06;;;;;;;;;;;20.30;53.60;;;;;;5164400;27;19922;-50
2022/07/07 11:55:32;;;;;;;;;;;20.30;53.90;;;;;;5170110;27;19941;-48
2022/07/07 11:57:58;;;;;;;;;;;20.20;53.90;;;;;;5164488;27;19926;-48
2022/07/07 12:00:25;;;;;;;;;;;20.40;53.40;;;;;;5169837;27;20455;-56
2022/07/07 12:02:51;;;;;;;;;;;20.30;53.70;;;;;;5145465;27;19923;-51
2022/07/07 12:05:17;;;;;;;;;;;20.30;53.70;;;;;;5144832;27;19929;-48
2022/07/07 12:07:43;;;;;;;;;;;20.40;53.70;;;;;;5169733;27;20018;-54
2022/07/07 12:10:22;;;;;;;;;;;20.30;53.80;;;;;;5164223;27;20298;-51
2022/07/07 12:12:55;;;;;;;;;;;20.20;54.10;;;;;;5164397;27;19922;-48
2022/07/07 12:15:21;;;;;;;;;;;20.20;53.90;;;;;;5169983;27;19965;-52
2022/07/07 12:17:47;;;;;;;;;;;20.30;53.70;;;;;;5164217;27;19930;-53
2022/07/07 12:20:16;;;;;;;;;;;20.30;53.70;;;;;;5164050;27;20678;-51
2022/07/07 12:22:45;;;;;;;;;;;20.30;53.50;;;;;;5167917;27;19927;-49
2022/07/07 12:25:11;;;;;;;;;;;20.60;53.00;;;;;;5163776;27;19975;-50
2022/07/07 12:27:53;;;;;;;;;;;20.40;53.40;;;;;;5166132;27;19923;-59
2022/07/07 12:30:19;;;;;;;;;;;20.40;53.40;;;;;;5169741;27;19927;-49
2022/07/07 12:32:45;;;;;;;;;;;20.40;53.30;;;;;;5163019;27;19999;-46
2022/07/07 12:35:27;;;;;;;;;;;20.40;53.50;;;;;;5151087;27;19923;-50
2022/07/07 12:37:53;;;;;;;;;;;20.50;53.10;;;;;;5169395;27;19926;-48
2022/07/07 12:40:19;;;;;;;;;;;20.40;53.20;;;;;;5162234;27;19979;-47
2022/07/07 12:42:45;;;;;;;;;;;20.40;53.10;;;;;;5168645;27;19930;-49
2022/07/07 12:45:14;;;;;;;;;;;20.40;53.10;;;;;;5145159;27;20009;-46
2022/07/07 12:47:58;;;;;;;;;;;20.20;53.50;;;;;;5163671;27;20017;-50
2022/07/07 12:50:24;;;;;;;;;;;20.40;53.50;;;;;;5169160;27;19930;-47
2022/07/07 12:52:54;;;;;;;;;;;20.50;53.50;;;;;;5163841;27;19974;-50
2022/07/07 12:55:20;;;;;;;;;;;20.30;53.90;;;;;;5145051;27;19953;-49
2022/07/07 12:57:45;;;;;;;;;;;20.50;53.70;;;;;;5168084;27;20393;-51
2022/07/07 13:00:24;;;;;;;;;;;20.40;53.70;;;;;;5162182;27;19949;-50
2022/07/07 13:02:50;;;;;;;;;;;20.30;54.00;;;;;;5163231;27;20096;-52
2022/07/07 13:05:16;;;;;;;;;;;20.40;54.20;;;;;;5149166;27;19930;-50
2022/07/07 13:07:42;;;;;;;;;;;20.30;54.30;;;;;;5144899;27;19954;-49
2022/07/07 13:10:07;;;;;;;;;;;20.50;53.90;;;;;;5167510;27;20007;-57
2022/07/07 13:12:33;;;;;;;;;;;20.50;53.80;;;;;;5165382;27;19923;-49
2022/07/07 13:14:59;;;;;;;;;;;20.30;54.10;;;;;;5144931;27;19964;-48
2022/07/07 13:17:25;;;;;;;;;;;20.40;53.90;;;;;;5148028;27;20008;-47
2022/07/07 13:19:51;;;;;;;;;;;20.50;53.80;;;;;;5162470;27;19926;-49
2022/07/07 13:22:16;;;;;;;;;;;20.60;53.50;;;;;;5162782;27;19927;-46
2022/07/07 13:24:42;;;;;;;;;;;20.40;53.90;;;;;;5150156;27;19967;-52
2022/07/07 13:27:08;;;;;;;;;;;20.50;53.40;;;;;;5163155;27;20432;-48
2022/07/07 13:29:34;;;;;;;;;;;20.30;54.00;;;;;;5165021;27;19930;-58
2022/07/07 13:31:59;;;;;;;;;;;20.40;53.90;;;;;;5167293;27;19945;-46
2022/07/07 13:34:25;;;;;;;;;;;20.40;53.90;;;;;;5162142;27;19929;-47
2022/07/07 13:36:51;;;;;;;;;;;20.30;54.20;;;;;;5147362;27;20429;-48
2022/07/07 13:39:17;;;;;;;;;;;20.30;54.20;;;;;;5144040;27;19923;-49
2022/07/07 13:41:43;;;;;;;;;;;20.30;54.50;;;;;;5162878;27;19922;-47
2022/07/07 13:44:09;;;;;;;;;;;20.50;54.10;;;;;;5148903;27;20443;-45
2022/07/07 13:46:34;;;;;;;;;;;20.40;54.00;;;;;;5162893;27;20005;-47
2022/07/07 13:49:00;;;;;;;;;;;20.40;54.20;;;;;;5162777;27;19929;-54
2022/07/07 13:51:26;;;;;;;;;;;20.30;54.50;;;;;;5168183;27;19933;-49
2022/07/07 13:53:52;;;;;;;;;;;20.40;54.10;;;;;;5160773;27;19926;-52
2022/07/07 13:56:18;;;;;;;;;;;20.40;54.00;;;;;;5167216;27;19987;-49
2022/07/07 13:58:44;;;;;;;;;;;20.30;54.40;;;;;;5143384;27;19930;-46
2022/07/07 14:01:09;;;;;;;;;;;20.50;54.00;;;;;;5144025;27;19973;-46
2022/07/07 14:03:35;;;;;;;;;;;20.40;54.50;;;;;;5148199;27;19934;-46
2022/07/07 14:06:01;;;;;;;;;;;20.30;55.20;;;;;;5162657;27;19938;-46
2022/07/07 14:08:27;;;;;;;;;;;20.30;55.60;;;;;;5162464;27;19929;-45
2022/07/07 14:10:53;;;;;;;;;;;20.50;55.50;;;;;;5167065;27;20334;-47
2022/07/07 14:13:18;;;;;;;;;;;20.50;55.40;;;;;;5142096;27;19949;-49
2022/07/07 14:15:46;;;;;;;;;;;20.20;56.00;;;;;;5167360;27;20297;-46
2022/07/07 14:18:12;;;;;;;;;;;20.10;56.00;;;;;;5161888;27;19922;-48